sensor_id;sensor_type;location;lat;lon;timestamp;P1;durP1;ratioP1;P2;durP2;ratioP2
76953;SDS011;65893;51.698;-0.292;2023-12-29T00:00:04;15.32;;;3.22;;
76953;SDS011;65893;51.698;-0.292;2023-12-29T00:02:30;9.80;;;2.20;;
76953;SDS011;65893;51.698;-0.292;2023-12-29T00:04:57;12.85;;;2.42;;
76953;SDS011;65893;51.698;-0.292;2023-12-29T00:07:23;11.15;;;2.00;;
76953;SDS011;65893;51.698;-0.292;2023-12-29T00:09:49;15.95;;;2.67;;
76953;SDS011;65893;51.698;-0.292;2023-12-29T00:12:15;15.38;;;2.63;;
76953;SDS011;65893;51.698;-0.292;2023-12-29T00:14:41;18.25;;;2.40;;
76953;SDS011;65893;51.698;-0.292;2023-12-29T00:17:08;15.05;;;3.38;;
76953;SDS011;65893;51.698;-0.292;2023-12-29T00:19:34;23.52;;;3.13;;
76953;SDS011;65893;51.698;-0.292;2023-12-29T00:22:00;17.23;;;2.72;;
76953;SDS011;65893;51.698;-0.292;2023-12-29T00:24:29;23.73;;;3.30;;
76953;SDS011;65893;51.698;-0.292;2023-12-29T00:26:56;13.82;;;2.22;;
76953;SDS011;65893;51.698;-0.292;2023-12-29T00:29:23;14.90;;;2.58;;
76953;SDS011;65893;51.698;-0.292;2023-12-29T00:31:50;19.23;;;3.08;;
76953;SDS011;65893;51.698;-0.292;2023-12-29T00:34:16;17.15;;;3.33;;
76953;SDS011;65893;51.698;-0.292;2023-12-29T00:36:42;16.13;;;3.10;;
76953;SDS011;65893;51.698;-0.292;2023-12-29T00:39:08;14.48;;;2.90;;
76953;SDS011;65893;51.698;-0.292;2023-12-29T00:41:34;10.55;;;2.53;;
76953;SDS011;65893;51.698;-0.292;2023-12-29T00:44:00;13.75;;;2.38;;
76953;SDS011;65893;51.698;-0.292;2023-12-29T00:46:26;18.13;;;2.65;;
76953;SDS011;65893;51.698;-0.292;2023-12-29T00:48:52;17.83;;;2.85;;
76953;SDS011;65893;51.698;-0.292;2023-12-29T00:51:18;14.73;;;2.47;;
76953;SDS011;65893;51.698;-0.292;2023-12-29T00:53:44;14.88;;;3.38;;
76953;SDS011;65893;51.698;-0.292;2023-12-29T00:56:10;9.73;;;2.42;;
76953;SDS011;65893;51.698;-0.292;2023-12-29T00:58:36;15.82;;;2.95;;
76953;SDS011;65893;51.698;-0.292;2023-12-29T01:01:02;13.18;;;1.90;;
76953;SDS011;65893;51.698;-0.292;2023-12-29T01:03:28;14.73;;;2.95;;
76953;SDS011;65893;51.698;-0.292;2023-12-29T01:05:54;10.00;;;2.17;;
76953;SDS011;65893;51.698;-0.292;2023-12-29T01:08:20;12.75;;;2.70;;
76953;SDS011;65893;51.698;-0.292;2023-12-29T01:10:46;18.48;;;2.75;;
76953;SDS011;65893;51.698;-0.292;2023-12-29T01:13:13;15.40;;;2.65;;
76953;SDS011;65893;51.698;-0.292;2023-12-29T01:15:41;14.32;;;2.13;;
76953;SDS011;65893;51.698;-0.292;2023-12-29T01:18:10;17.67;;;2.22;;
76953;SDS011;65893;51.698;-0.292;2023-12-29T01:20:36;20.15;;;3.10;;
76953;SDS011;65893;51.698;-0.292;2023-12-29T01:23:04;12.75;;;2.55;;
76953;SDS011;65893;51.698;-0.292;2023-12-29T01:25:30;20.25;;;2.33;;
76953;SDS011;65893;51.698;-0.292;2023-12-29T01:27:56;17.13;;;2.00;;
76953;SDS011;65893;51.698;-0.292;2023-12-29T01:30:22;12.82;;;2.03;;
76953;SDS011;65893;51.698;-0.292;2023-12-29T01:32:48;24.63;;;4.35;;
76953;SDS011;65893;51.698;-0.292;2023-12-29T01:35:14;13.45;;;2.40;;
76953;SDS011;65893;51.698;-0.292;2023-12-29T01:37:41;12.15;;;2.03;;
76953;SDS011;65893;51.698;-0.292;2023-12-29T01:40:08;26.90;;;3.53;;
76953;SDS011;65893;51.698;-0.292;2023-12-29T01:42:34;23.92;;;2.47;;
76953;SDS011;65893;51.698;-0.292;2023-12-29T01:45:00;24.70;;;2.80;;
76953;SDS011;65893;51.698;-0.292;2023-12-29T01:47:26;15.20;;;2.50;;
76953;SDS011;65893;51.698;-0.292;2023-12-29T01:49:53;19.15;;;2.97;;
76953;SDS011;65893;51.698;-0.292;2023-12-29T01:52:19;14.00;;;2.33;;
76953;SDS011;65893;51.698;-0.292;2023-12-29T01:54:46;16.70;;;2.30;;
76953;SDS011;65893;51.698;-0.292;2023-12-29T01:57:13;17.45;;;2.38;;
76953;SDS011;65893;51.698;-0.292;2023-12-29T01:59:39;14.75;;;1.80;;
76953;SDS011;65893;51.698;-0.292;2023-12-29T02:02:06;15.70;;;2.28;;
76953;SDS011;65893;51.698;-0.292;2023-12-29T02:04:32;15.30;;;2.00;;
76953;SDS011;65893;51.698;-0.292;2023-12-29T02:06:58;13.27;;;1.65;;
76953;SDS011;65893;51.698;-0.292;2023-12-29T02:09:25;11.82;;;2.20;;
76953;SDS011;65893;51.698;-0.292;2023-12-29T02:11:52;14.65;;;3.03;;
76953;SDS011;65893;51.698;-0.292;2023-12-29T02:14:18;16.25;;;2.53;;
76953;SDS011;65893;51.698;-0.292;2023-12-29T02:19:45;15.40;;;3.50;;
76953;SDS011;65893;51.698;-0.292;2023-12-29T02:22:12;17.65;;;1.92;;
76953;SDS011;65893;51.698;-0.292;2023-12-29T02:24:38;13.30;;;2.20;;
76953;SDS011;65893;51.698;-0.292;2023-12-29T02:29:32;19.35;;;3.05;;
76953;SDS011;65893;51.698;-0.292;2023-12-29T02:31:59;20.98;;;2.13;;
76953;SDS011;65893;51.698;-0.292;2023-12-29T02:34:25;19.05;;;2.08;;
76953;SDS011;65893;51.698;-0.292;2023-12-29T02:36:52;21.33;;;3.05;;
76953;SDS011;65893;51.698;-0.292;2023-12-29T02:39:19;19.75;;;3.10;;
76953;SDS011;65893;51.698;-0.292;2023-12-29T02:41:45;14.20;;;2.50;;
76953;SDS011;65893;51.698;-0.292;2023-12-29T02:44:14;14.48;;;1.80;;
76953;SDS011;65893;51.698;-0.292;2023-12-29T02:46:40;15.38;;;2.78;;
76953;SDS011;65893;51.698;-0.292;2023-12-29T02:49:06;11.88;;;2.15;;
76953;SDS011;65893;51.698;-0.292;2023-12-29T02:51:36;18.02;;;2.28;;
76953;SDS011;65893;51.698;-0.292;2023-12-29T02:54:02;11.20;;;2.42;;
76953;SDS011;65893;51.698;-0.292;2023-12-29T02:56:32;16.00;;;2.55;;
76953;SDS011;65893;51.698;-0.292;2023-12-29T02:58:58;22.33;;;3.03;;
76953;SDS011;65893;51.698;-0.292;2023-12-29T03:01:24;15.90;;;3.05;;
76953;SDS011;65893;51.698;-0.292;2023-12-29T03:03:50;13.85;;;2.47;;
76953;SDS011;65893;51.698;-0.292;2023-12-29T03:06:16;22.23;;;2.65;;
76953;SDS011;65893;51.698;-0.292;2023-12-29T03:08:42;21.75;;;3.08;;
76953;SDS011;65893;51.698;-0.292;2023-12-29T03:11:08;19.13;;;2.45;;
76953;SDS011;65893;51.698;-0.292;2023-12-29T03:13:34;24.55;;;2.53;;
76953;SDS011;65893;51.698;-0.292;2023-12-29T03:16:00;27.80;;;2.65;;
76953;SDS011;65893;51.698;-0.292;2023-12-29T03:18:26;11.20;;;2.17;;
76953;SDS011;65893;51.698;-0.292;2023-12-29T03:20:52;12.77;;;2.75;;
76953;SDS011;65893;51.698;-0.292;2023-12-29T03:23:18;20.48;;;3.50;;
76953;SDS011;65893;51.698;-0.292;2023-12-29T03:25:44;16.52;;;2.53;;
76953;SDS011;65893;51.698;-0.292;2023-12-29T03:28:10;10.88;;;2.83;;
76953;SDS011;65893;51.698;-0.292;2023-12-29T03:30:36;14.60;;;2.55;;
76953;SDS011;65893;51.698;-0.292;2023-12-29T03:33:02;17.25;;;3.75;;
76953;SDS011;65893;51.698;-0.292;2023-12-29T03:35:28;20.92;;;2.85;;
76953;SDS011;65893;51.698;-0.292;2023-12-29T03:37:54;11.45;;;3.03;;
76953;SDS011;65893;51.698;-0.292;2023-12-29T03:40:20;20.90;;;3.10;;
76953;SDS011;65893;51.698;-0.292;2023-12-29T03:42:46;15.57;;;3.08;;
76953;SDS011;65893;51.698;-0.292;2023-12-29T03:45:12;14.30;;;2.72;;
76953;SDS011;65893;51.698;-0.292;2023-12-29T03:47:39;17.00;;;2.30;;
76953;SDS011;65893;51.698;-0.292;2023-12-29T03:50:05;14.18;;;2.22;;
76953;SDS011;65893;51.698;-0.292;2023-12-29T03:52:31;15.50;;;2.63;;
76953;SDS011;65893;51.698;-0.292;2023-12-29T03:54:57;18.13;;;2.22;;
76953;SDS011;65893;51.698;-0.292;2023-12-29T03:57:23;16.23;;;2.33;;
76953;SDS011;65893;51.698;-0.292;2023-12-29T03:59:49;9.45;;;1.65;;
76953;SDS011;65893;51.698;-0.292;2023-12-29T04:02:15;10.60;;;2.35;;
76953;SDS011;65893;51.698;-0.292;2023-12-29T04:04:42;19.10;;;1.95;;
76953;SDS011;65893;51.698;-0.292;2023-12-29T04:07:09;9.77;;;1.83;;
76953;SDS011;65893;51.698;-0.292;2023-12-29T04:09:35;14.85;;;2.78;;
76953;SDS011;65893;51.698;-0.292;2023-12-29T04:12:00;15.80;;;1.60;;
76953;SDS011;65893;51.698;-0.292;2023-12-29T04:14:26;21.83;;;2.45;;
76953;SDS011;65893;51.698;-0.292;2023-12-29T04:16:52;11.00;;;2.70;;
76953;SDS011;65893;51.698;-0.292;2023-12-29T04:19:18;13.32;;;2.92;;
76953;SDS011;65893;51.698;-0.292;2023-12-29T04:21:44;11.32;;;1.63;;
76953;SDS011;65893;51.698;-0.292;2023-12-29T04:24:10;15.45;;;2.80;;
76953;SDS011;65893;51.698;-0.292;2023-12-29T04:26:37;16.13;;;2.10;;
76953;SDS011;65893;51.698;-0.292;2023-12-29T04:29:03;12.95;;;2.83;;
76953;SDS011;65893;51.698;-0.292;2023-12-29T04:31:29;8.15;;;1.80;;
76953;SDS011;65893;51.698;-0.292;2023-12-29T04:33:55;11.80;;;2.08;;
76953;SDS011;65893;51.698;-0.292;2023-12-29T04:36:21;16.67;;;2.60;;
76953;SDS011;65893;51.698;-0.292;2023-12-29T04:38:47;11.77;;;1.70;;
76953;SDS011;65893;51.698;-0.292;2023-12-29T04:41:13;7.28;;;1.75;;
76953;SDS011;65893;51.698;-0.292;2023-12-29T04:43:39;9.57;;;1.90;;
76953;SDS011;65893;51.698;-0.292;2023-12-29T04:46:05;13.57;;;2.08;;
76953;SDS011;65893;51.698;-0.292;2023-12-29T04:48:31;9.35;;;1.60;;
76953;SDS011;65893;51.698;-0.292;2023-12-29T04:50:58;13.50;;;1.98;;
76953;SDS011;65893;51.698;-0.292;2023-12-29T04:53:24;20.08;;;2.95;;
76953;SDS011;65893;51.698;-0.292;2023-12-29T04:55:50;13.50;;;1.65;;
76953;SDS011;65893;51.698;-0.292;2023-12-29T04:58:16;15.80;;;2.75;;
76953;SDS011;65893;51.698;-0.292;2023-12-29T05:00:42;13.57;;;2.63;;
76953;SDS011;65893;51.698;-0.292;2023-12-29T05:03:08;12.20;;;2.00;;
76953;SDS011;65893;51.698;-0.292;2023-12-29T05:05:34;13.68;;;1.80;;
76953;SDS011;65893;51.698;-0.292;2023-12-29T05:08:00;9.70;;;1.65;;
76953;SDS011;65893;51.698;-0.292;2023-12-29T05:10:26;17.65;;;2.45;;
76953;SDS011;65893;51.698;-0.292;2023-12-29T05:12:52;10.23;;;1.45;;
76953;SDS011;65893;51.698;-0.292;2023-12-29T05:15:18;4.45;;;1.25;;
76953;SDS011;65893;51.698;-0.292;2023-12-29T05:17:44;11.30;;;2.00;;
76953;SDS011;65893;51.698;-0.292;2023-12-29T05:20:10;17.30;;;2.70;;
76953;SDS011;65893;51.698;-0.292;2023-12-29T05:22:36;10.25;;;1.85;;
76953;SDS011;65893;51.698;-0.292;2023-12-29T05:25:03;12.88;;;1.83;;
76953;SDS011;65893;51.698;-0.292;2023-12-29T05:27:29;10.13;;;1.38;;
76953;SDS011;65893;51.698;-0.292;2023-12-29T05:29:55;15.90;;;2.40;;
76953;SDS011;65893;51.698;-0.292;2023-12-29T05:32:22;16.98;;;2.47;;
76953;SDS011;65893;51.698;-0.292;2023-12-29T05:34:48;8.70;;;1.58;;
76953;SDS011;65893;51.698;-0.292;2023-12-29T05:37:14;9.60;;;1.20;;
76953;SDS011;65893;51.698;-0.292;2023-12-29T05:39:43;9.50;;;1.48;;
76953;SDS011;65893;51.698;-0.292;2023-12-29T05:42:09;10.77;;;1.75;;
76953;SDS011;65893;51.698;-0.292;2023-12-29T05:44:35;7.95;;;1.95;;
76953;SDS011;65893;51.698;-0.292;2023-12-29T05:47:02;16.90;;;2.67;;
76953;SDS011;65893;51.698;-0.292;2023-12-29T05:49:28;4.40;;;1.38;;
76953;SDS011;65893;51.698;-0.292;2023-12-29T05:51:54;7.85;;;1.25;;
76953;SDS011;65893;51.698;-0.292;2023-12-29T05:54:20;10.02;;;1.67;;
76953;SDS011;65893;51.698;-0.292;2023-12-29T05:56:46;15.43;;;1.80;;
76953;SDS011;65893;51.698;-0.292;2023-12-29T05:59:12;9.25;;;1.92;;
76953;SDS011;65893;51.698;-0.292;2023-12-29T06:01:38;9.68;;;1.27;;
76953;SDS011;65893;51.698;-0.292;2023-12-29T06:04:04;7.55;;;1.75;;
76953;SDS011;65893;51.698;-0.292;2023-12-29T06:06:30;14.30;;;1.67;;
76953;SDS011;65893;51.698;-0.292;2023-12-29T06:08:56;10.68;;;1.17;;
76953;SDS011;65893;51.698;-0.292;2023-12-29T06:11:22;6.25;;;1.40;;
76953;SDS011;65893;51.698;-0.292;2023-12-29T06:13:48;16.15;;;1.15;;
76953;SDS011;65893;51.698;-0.292;2023-12-29T06:16:18;10.68;;;1.23;;
76953;SDS011;65893;51.698;-0.292;2023-12-29T06:18:44;12.77;;;1.17;;
76953;SDS011;65893;51.698;-0.292;2023-12-29T06:21:10;6.25;;;1.00;;
76953;SDS011;65893;51.698;-0.292;2023-12-29T06:23:36;6.15;;;1.45;;
76953;SDS011;65893;51.698;-0.292;2023-12-29T06:26:02;8.85;;;1.10;;
76953;SDS011;65893;51.698;-0.292;2023-12-29T06:28:28;8.80;;;1.20;;
76953;SDS011;65893;51.698;-0.292;2023-12-29T06:30:54;4.20;;;0.98;;
76953;SDS011;65893;51.698;-0.292;2023-12-29T06:33:20;10.68;;;1.20;;
76953;SDS011;65893;51.698;-0.292;2023-12-29T06:35:47;7.00;;;1.27;;
76953;SDS011;65893;51.698;-0.292;2023-12-29T06:38:13;5.13;;;1.20;;
76953;SDS011;65893;51.698;-0.292;2023-12-29T06:40:39;2.08;;;0.82;;
76953;SDS011;65893;51.698;-0.292;2023-12-29T06:43:05;5.97;;;1.10;;
76953;SDS011;65893;51.698;-0.292;2023-12-29T06:45:31;6.18;;;1.15;;
76953;SDS011;65893;51.698;-0.292;2023-12-29T06:47:57;4.32;;;1.02;;
76953;SDS011;65893;51.698;-0.292;2023-12-29T06:50:23;6.15;;;1.35;;
76953;SDS011;65893;51.698;-0.292;2023-12-29T06:52:49;9.80;;;1.38;;
76953;SDS011;65893;51.698;-0.292;2023-12-29T06:55:15;8.43;;;1.55;;
76953;SDS011;65893;51.698;-0.292;2023-12-29T06:57:41;5.93;;;1.35;;
76953;SDS011;65893;51.698;-0.292;2023-12-29T07:00:07;5.40;;;0.82;;
76953;SDS011;65893;51.698;-0.292;2023-12-29T07:02:37;6.43;;;1.15;;
76953;SDS011;65893;51.698;-0.292;2023-12-29T07:05:03;7.20;;;1.10;;
76953;SDS011;65893;51.698;-0.292;2023-12-29T07:07:32;10.52;;;1.70;;
76953;SDS011;65893;51.698;-0.292;2023-12-29T07:09:58;6.57;;;0.80;;
76953;SDS011;65893;51.698;-0.292;2023-12-29T07:12:24;15.82;;;1.58;;
76953;SDS011;65893;51.698;-0.292;2023-12-29T07:14:50;5.40;;;0.77;;
76953;SDS011;65893;51.698;-0.292;2023-12-29T07:17:17;9.68;;;1.27;;
76953;SDS011;65893;51.698;-0.292;2023-12-29T07:19:42;5.97;;;1.23;;
76953;SDS011;65893;51.698;-0.292;2023-12-29T07:22:08;14.57;;;2.30;;
76953;SDS011;65893;51.698;-0.292;2023-12-29T07:24:35;7.43;;;0.95;;
76953;SDS011;65893;51.698;-0.292;2023-12-29T07:27:02;11.93;;;1.67;;
76953;SDS011;65893;51.698;-0.292;2023-12-29T07:29:28;8.55;;;1.05;;
76953;SDS011;65893;51.698;-0.292;2023-12-29T07:31:54;6.32;;;1.70;;
76953;SDS011;65893;51.698;-0.292;2023-12-29T07:34:20;5.50;;;1.10;;
76953;SDS011;65893;51.698;-0.292;2023-12-29T07:36:46;7.82;;;0.88;;
76953;SDS011;65893;51.698;-0.292;2023-12-29T07:39:14;4.35;;;0.55;;
76953;SDS011;65893;51.698;-0.292;2023-12-29T07:41:40;5.15;;;0.50;;
76953;SDS011;65893;51.698;-0.292;2023-12-29T07:44:07;2.15;;;0.95;;
76953;SDS011;65893;51.698;-0.292;2023-12-29T07:46:33;3.03;;;0.80;;
76953;SDS011;65893;51.698;-0.292;2023-12-29T07:49:01;5.50;;;1.17;;
76953;SDS011;65893;51.698;-0.292;2023-12-29T07:51:27;5.25;;;0.90;;
76953;SDS011;65893;51.698;-0.292;2023-12-29T07:53:53;5.28;;;0.90;;
76953;SDS011;65893;51.698;-0.292;2023-12-29T07:56:19;4.68;;;1.02;;
76953;SDS011;65893;51.698;-0.292;2023-12-29T07:58:45;6.93;;;1.10;;
76953;SDS011;65893;51.698;-0.292;2023-12-29T08:01:11;6.85;;;1.10;;
76953;SDS011;65893;51.698;-0.292;2023-12-29T08:03:37;3.90;;;0.80;;
76953;SDS011;65893;51.698;-0.292;2023-12-29T08:06:03;6.63;;;0.88;;
76953;SDS011;65893;51.698;-0.292;2023-12-29T08:08:29;4.90;;;1.05;;
76953;SDS011;65893;51.698;-0.292;2023-12-29T08:10:55;11.38;;;1.73;;
76953;SDS011;65893;51.698;-0.292;2023-12-29T08:13:21;9.13;;;0.98;;
76953;SDS011;65893;51.698;-0.292;2023-12-29T08:15:48;5.80;;;1.33;;
76953;SDS011;65893;51.698;-0.292;2023-12-29T08:18:14;5.45;;;0.90;;
76953;SDS011;65893;51.698;-0.292;2023-12-29T08:20:40;5.80;;;1.27;;
76953;SDS011;65893;51.698;-0.292;2023-12-29T08:23:06;8.23;;;0.93;;
76953;SDS011;65893;51.698;-0.292;2023-12-29T08:25:32;6.57;;;0.85;;
76953;SDS011;65893;51.698;-0.292;2023-12-29T08:27:58;4.00;;;0.77;;
76953;SDS011;65893;51.698;-0.292;2023-12-29T08:30:24;15.35;;;1.85;;
76953;SDS011;65893;51.698;-0.292;2023-12-29T08:32:50;5.70;;;0.70;;
76953;SDS011;65893;51.698;-0.292;2023-12-29T08:35:16;2.35;;;0.60;;
76953;SDS011;65893;51.698;-0.292;2023-12-29T08:37:42;6.97;;;0.90;;
76953;SDS011;65893;51.698;-0.292;2023-12-29T08:40:08;2.83;;;0.90;;
76953;SDS011;65893;51.698;-0.292;2023-12-29T08:42:34;5.18;;;0.85;;
76953;SDS011;65893;51.698;-0.292;2023-12-29T08:45:01;3.00;;;0.70;;
76953;SDS011;65893;51.698;-0.292;2023-12-29T08:47:28;6.35;;;0.73;;
76953;SDS011;65893;51.698;-0.292;2023-12-29T08:49:54;5.72;;;1.08;;
76953;SDS011;65893;51.698;-0.292;2023-12-29T08:52:20;3.75;;;0.65;;
76953;SDS011;65893;51.698;-0.292;2023-12-29T08:54:46;8.35;;;1.17;;
76953;SDS011;65893;51.698;-0.292;2023-12-29T08:57:12;2.42;;;0.60;;
76953;SDS011;65893;51.698;-0.292;2023-12-29T08:59:41;5.35;;;1.08;;
76953;SDS011;65893;51.698;-0.292;2023-12-29T09:02:07;4.45;;;0.95;;
76953;SDS011;65893;51.698;-0.292;2023-12-29T09:04:33;3.05;;;0.98;;
76953;SDS011;65893;51.698;-0.292;2023-12-29T09:06:59;2.00;;;0.45;;
76953;SDS011;65893;51.698;-0.292;2023-12-29T09:09:25;11.05;;;1.10;;
76953;SDS011;65893;51.698;-0.292;2023-12-29T09:11:51;2.88;;;0.73;;
76953;SDS011;65893;51.698;-0.292;2023-12-29T09:14:17;6.50;;;1.02;;
76953;SDS011;65893;51.698;-0.292;2023-12-29T09:16:43;6.25;;;1.08;;
76953;SDS011;65893;51.698;-0.292;2023-12-29T09:19:11;11.82;;;1.10;;
76953;SDS011;65893;51.698;-0.292;2023-12-29T09:21:38;9.57;;;1.15;;
76953;SDS011;65893;51.698;-0.292;2023-12-29T09:24:04;8.30;;;1.92;;
76953;SDS011;65893;51.698;-0.292;2023-12-29T09:26:30;6.97;;;0.93;;
76953;SDS011;65893;51.698;-0.292;2023-12-29T09:28:56;7.25;;;1.30;;
76953;SDS011;65893;51.698;-0.292;2023-12-29T09:31:22;7.07;;;1.50;;
76953;SDS011;65893;51.698;-0.292;2023-12-29T09:33:50;8.32;;;1.42;;
76953;SDS011;65893;51.698;-0.292;2023-12-29T09:36:16;7.68;;;0.95;;
76953;SDS011;65893;51.698;-0.292;2023-12-29T09:38:42;8.52;;;1.38;;
76953;SDS011;65893;51.698;-0.292;2023-12-29T09:41:11;8.40;;;1.17;;
76953;SDS011;65893;51.698;-0.292;2023-12-29T09:43:40;5.78;;;0.98;;
76953;SDS011;65893;51.698;-0.292;2023-12-29T09:46:07;6.05;;;0.82;;
76953;SDS011;65893;51.698;-0.292;2023-12-29T09:48:34;3.33;;;1.20;;
76953;SDS011;65893;51.698;-0.292;2023-12-29T09:51:05;3.28;;;1.23;;
76953;SDS011;65893;51.698;-0.292;2023-12-29T09:53:32;4.35;;;0.65;;
76953;SDS011;65893;51.698;-0.292;2023-12-29T09:55:58;9.07;;;1.02;;
76953;SDS011;65893;51.698;-0.292;2023-12-29T09:58:26;11.82;;;1.58;;
76953;SDS011;65893;51.698;-0.292;2023-12-29T10:00:52;6.90;;;1.33;;
76953;SDS011;65893;51.698;-0.292;2023-12-29T10:03:18;6.18;;;1.83;;
76953;SDS011;65893;51.698;-0.292;2023-12-29T10:05:45;8.18;;;1.38;;
76953;SDS011;65893;51.698;-0.292;2023-12-29T10:08:14;8.10;;;1.65;;
76953;SDS011;65893;51.698;-0.292;2023-12-29T10:10:41;7.35;;;1.40;;
76953;SDS011;65893;51.698;-0.292;2023-12-29T10:13:08;3.55;;;0.93;;
76953;SDS011;65893;51.698;-0.292;2023-12-29T10:16:20;7.43;;;0.80;;
76953;SDS011;65893;51.698;-0.292;2023-12-29T10:18:29;2.50;;;0.75;;
76953;SDS011;65893;51.698;-0.292;2023-12-29T10:23:32;9.68;;;1.23;;
76953;SDS011;65893;51.698;-0.292;2023-12-29T10:25:58;6.50;;;0.80;;
76953;SDS011;65893;51.698;-0.292;2023-12-29T10:28:24;3.90;;;0.73;;
76953;SDS011;65893;51.698;-0.292;2023-12-29T10:30:50;2.38;;;0.70;;
76953;SDS011;65893;51.698;-0.292;2023-12-29T10:33:20;7.30;;;1.27;;
76953;SDS011;65893;51.698;-0.292;2023-12-29T10:35:59;3.83;;;0.70;;
76953;SDS011;65893;51.698;-0.292;2023-12-29T10:38:31;6.18;;;1.27;;
76953;SDS011;65893;51.698;-0.292;2023-12-29T10:41:10;16.33;;;1.85;;
76953;SDS011;65893;51.698;-0.292;2023-12-29T10:43:37;6.88;;;1.52;;
76953;SDS011;65893;51.698;-0.292;2023-12-29T10:46:07;15.05;;;1.85;;
76953;SDS011;65893;51.698;-0.292;2023-12-29T10:48:34;3.17;;;1.10;;
76953;SDS011;65893;51.698;-0.292;2023-12-29T10:51:00;3.40;;;0.85;;
76953;SDS011;65893;51.698;-0.292;2023-12-29T10:53:32;12.15;;;2.63;;
76953;SDS011;65893;51.698;-0.292;2023-12-29T10:55:59;6.82;;;1.38;;
76953;SDS011;65893;51.698;-0.292;2023-12-29T10:58:28;5.50;;;1.33;;
76953;SDS011;65893;51.698;-0.292;2023-12-29T11:00:55;9.48;;;1.30;;
76953;SDS011;65893;51.698;-0.292;2023-12-29T11:03:21;7.82;;;0.93;;
76953;SDS011;65893;51.698;-0.292;2023-12-29T11:05:48;3.25;;;1.30;;
76953;SDS011;65893;51.698;-0.292;2023-12-29T11:08:19;8.38;;;1.20;;
76953;SDS011;65893;51.698;-0.292;2023-12-29T11:10:46;4.32;;;1.08;;
76953;SDS011;65893;51.698;-0.292;2023-12-29T11:13:12;6.85;;;1.08;;
76953;SDS011;65893;51.698;-0.292;2023-12-29T11:15:42;11.50;;;1.77;;
76953;SDS011;65893;51.698;-0.292;2023-12-29T11:18:15;8.77;;;1.23;;
76953;SDS011;65893;51.698;-0.292;2023-12-29T11:20:42;8.27;;;1.40;;
76953;SDS011;65893;51.698;-0.292;2023-12-29T11:23:11;10.07;;;1.25;;
76953;SDS011;65893;51.698;-0.292;2023-12-29T11:25:40;11.10;;;1.27;;
76953;SDS011;65893;51.698;-0.292;2023-12-29T11:28:08;5.70;;;0.95;;
76953;SDS011;65893;51.698;-0.292;2023-12-29T11:30:35;5.60;;;0.98;;
76953;SDS011;65893;51.698;-0.292;2023-12-29T11:33:12;7.60;;;1.25;;
76953;SDS011;65893;51.698;-0.292;2023-12-29T11:40:44;8.55;;;1.17;;
76953;SDS011;65893;51.698;-0.292;2023-12-29T11:43:15;40.67;;;3.63;;
76953;SDS011;65893;51.698;-0.292;2023-12-29T11:45:42;10.55;;;2.28;;
76953;SDS011;65893;51.698;-0.292;2023-12-29T11:48:09;40.80;;;5.00;;
76953;SDS011;65893;51.698;-0.292;2023-12-29T11:50:36;7.95;;;1.00;;
76953;SDS011;65893;51.698;-0.292;2023-12-29T11:53:04;6.72;;;0.93;;
76953;SDS011;65893;51.698;-0.292;2023-12-29T11:55:33;9.63;;;1.33;;
76953;SDS011;65893;51.698;-0.292;2023-12-29T11:58:00;2.92;;;0.88;;
76953;SDS011;65893;51.698;-0.292;2023-12-29T12:03:24;7.72;;;0.90;;
76953;SDS011;65893;51.698;-0.292;2023-12-29T12:05:51;4.40;;;1.25;;
76953;SDS011;65893;51.698;-0.292;2023-12-29T12:08:51;9.35;;;1.33;;
76953;SDS011;65893;51.698;-0.292;2023-12-29T12:13:56;6.57;;;1.05;;
76953;SDS011;65893;51.698;-0.292;2023-12-29T12:19:07;8.85;;;1.08;;
76953;SDS011;65893;51.698;-0.292;2023-12-29T12:21:34;13.50;;;1.10;;
76953;SDS011;65893;51.698;-0.292;2023-12-29T12:24:01;9.23;;;1.02;;
76953;SDS011;65893;51.698;-0.292;2023-12-29T12:26:28;5.47;;;0.80;;
76953;SDS011;65893;51.698;-0.292;2023-12-29T12:28:56;9.30;;;1.33;;
76953;SDS011;65893;51.698;-0.292;2023-12-29T12:31:22;7.03;;;1.27;;
76953;SDS011;65893;51.698;-0.292;2023-12-29T12:33:54;2.22;;;0.60;;
76953;SDS011;65893;51.698;-0.292;2023-12-29T12:36:21;4.18;;;1.00;;
76953;SDS011;65893;51.698;-0.292;2023-12-29T12:38:50;4.07;;;0.85;;
76953;SDS011;65893;51.698;-0.292;2023-12-29T12:41:17;4.47;;;0.57;;
76953;SDS011;65893;51.698;-0.292;2023-12-29T12:43:45;2.40;;;0.50;;
76953;SDS011;65893;51.698;-0.292;2023-12-29T12:46:14;5.85;;;0.80;;
76953;SDS011;65893;51.698;-0.292;2023-12-29T12:48:41;4.82;;;1.00;;
76953;SDS011;65893;51.698;-0.292;2023-12-29T12:51:10;7.38;;;0.90;;
76953;SDS011;65893;51.698;-0.292;2023-12-29T12:53:40;2.47;;;1.15;;
76953;SDS011;65893;51.698;-0.292;2023-12-29T12:56:06;3.22;;;0.80;;
76953;SDS011;65893;51.698;-0.292;2023-12-29T12:58:33;5.55;;;1.23;;
76953;SDS011;65893;51.698;-0.292;2023-12-29T13:00:59;1.15;;;0.38;;
76953;SDS011;65893;51.698;-0.292;2023-12-29T13:03:26;0.88;;;0.43;;
76953;SDS011;65893;51.698;-0.292;2023-12-29T13:05:52;0.82;;;0.47;;
76953;SDS011;65893;51.698;-0.292;2023-12-29T13:08:19;5.20;;;0.60;;
76953;SDS011;65893;51.698;-0.292;2023-12-29T13:10:46;7.22;;;1.15;;
76953;SDS011;65893;51.698;-0.292;2023-12-29T13:13:12;1.48;;;0.47;;
76953;SDS011;65893;51.698;-0.292;2023-12-29T13:15:48;0.88;;;0.40;;
76953;SDS011;65893;51.698;-0.292;2023-12-29T13:18:14;3.22;;;1.50;;
76953;SDS011;65893;51.698;-0.292;2023-12-29T13:20:44;3.92;;;0.60;;
76953;SDS011;65893;51.698;-0.292;2023-12-29T13:23:10;0.60;;;0.20;;
76953;SDS011;65893;51.698;-0.292;2023-12-29T13:25:36;2.45;;;0.55;;
76953;SDS011;65893;51.698;-0.292;2023-12-29T13:28:05;2.33;;;0.65;;
76953;SDS011;65893;51.698;-0.292;2023-12-29T13:30:31;2.38;;;0.50;;
76953;SDS011;65893;51.698;-0.292;2023-12-29T13:32:57;2.72;;;1.02;;
76953;SDS011;65893;51.698;-0.292;2023-12-29T13:35:31;1.98;;;0.57;;
76953;SDS011;65893;51.698;-0.292;2023-12-29T13:41:14;0.65;;;0.47;;
76953;SDS011;65893;51.698;-0.292;2023-12-29T13:43:15;1.58;;;0.60;;
76953;SDS011;65893;51.698;-0.292;2023-12-29T13:45:42;0.95;;;0.43;;
76953;SDS011;65893;51.698;-0.292;2023-12-29T13:48:09;1.38;;;0.50;;
76953;SDS011;65893;51.698;-0.292;2023-12-29T13:50:35;1.25;;;0.60;;
76953;SDS011;65893;51.698;-0.292;2023-12-29T13:53:01;3.33;;;0.70;;
76953;SDS011;65893;51.698;-0.292;2023-12-29T13:55:27;2.05;;;0.57;;
76953;SDS011;65893;51.698;-0.292;2023-12-29T13:57:53;5.43;;;0.90;;
76953;SDS011;65893;51.698;-0.292;2023-12-29T14:00:20;3.90;;;0.65;;
76953;SDS011;65893;51.698;-0.292;2023-12-29T14:10:19;1.77;;;0.70;;
76953;SDS011;65893;51.698;-0.292;2023-12-29T14:12:46;1.25;;;0.50;;
76953;SDS011;65893;51.698;-0.292;2023-12-29T14:15:12;2.83;;;0.52;;
76953;SDS011;65893;51.698;-0.292;2023-12-29T14:17:39;2.92;;;0.70;;
76953;SDS011;65893;51.698;-0.292;2023-12-29T14:20:08;2.13;;;0.50;;
76953;SDS011;65893;51.698;-0.292;2023-12-29T14:22:34;2.75;;;0.75;;
76953;SDS011;65893;51.698;-0.292;2023-12-29T14:25:06;2.28;;;0.60;;
76953;SDS011;65893;51.698;-0.292;2023-12-29T14:27:33;1.85;;;0.55;;
76953;SDS011;65893;51.698;-0.292;2023-12-29T14:29:59;0.95;;;0.60;;
76953;SDS011;65893;51.698;-0.292;2023-12-29T14:32:25;2.35;;;0.60;;
76953;SDS011;65893;51.698;-0.292;2023-12-29T14:34:53;3.20;;;0.80;;
76953;SDS011;65893;51.698;-0.292;2023-12-29T14:37:21;1.40;;;0.75;;
76953;SDS011;65893;51.698;-0.292;2023-12-29T14:39:51;0.93;;;0.40;;
76953;SDS011;65893;51.698;-0.292;2023-12-29T14:42:17;4.43;;;0.77;;
76953;SDS011;65893;51.698;-0.292;2023-12-29T14:44:47;4.20;;;0.70;;
76953;SDS011;65893;51.698;-0.292;2023-12-29T14:47:13;2.33;;;0.55;;
76953;SDS011;65893;51.698;-0.292;2023-12-29T14:49:40;3.00;;;0.63;;
76953;SDS011;65893;51.698;-0.292;2023-12-29T14:52:06;2.65;;;0.52;;
76953;SDS011;65893;51.698;-0.292;2023-12-29T14:54:32;1.80;;;0.63;;
76953;SDS011;65893;51.698;-0.292;2023-12-29T14:56:58;5.38;;;0.80;;